This is the latest recevied weather packets stored in our database for station/object NK7E-2. If no packets are shown the sender has not sent any weather packets the latest 10 day(s).
| Time | Temp. | Humidity | Pressure | Rain* | Wind** | Luminosity | Snow |
|---|---|---|---|---|---|---|---|
| 1777391116 | 18.33° C | 26% | 1024.2 hPa | 0 mm | - | - | - |
| 1777390516 | 17.78° C | 27% | 1023.9 hPa | 0 mm | - | - | - |
| 1777389916 | 17.78° C | 27% | 1024.1 hPa | 0 mm | - | - | - |
| 1777389316 | 17.22° C | 27% | 1024 hPa | 0 mm | - | - | - |
| 1777388116 | 16.67° C | 28% | 1023.8 hPa | 0 mm | - | - | - |
| 1777387516 | 16.67° C | 28% | 1023.5 hPa | 0 mm | - | - | - |
| 1777386916 | 16.67° C | 28% | 1023.8 hPa | 0 mm | - | - | - |
| 1777386316 | 16.11° C | 29% | 1023.5 hPa | 0 mm | - | - | - |
| 1777385716 | 16.11° C | 30% | 1023.7 hPa | 0 mm | - | - | - |
| 1777384516 | 13.89° C | 33% | 1023.1 hPa | 0 mm | - | - | - |
| 1777383916 | 12.78° C | 35% | 1022.7 hPa | 0 mm | - | - | - |
| 1777383316 | 12.22° C | 35% | 1022.3 hPa | 0 mm | - | - | - |
| 1777382716 | 11.11° C | 37% | 1022.3 hPa | 0 mm | - | - | - |
| 1777382116 | 11.11° C | 37% | 1022.1 hPa | 0 mm | - | - | - |
| 1777381515 | 11.11° C | 37% | 1022 hPa | 0 mm | - | - | - |
| 1777377917 | 12.22° C | 35% | 1021.5 hPa | 0 mm | - | - | - |
| 1777376117 | 12.22° C | 35% | 1021.3 hPa | 0 mm | - | - | - |
| 1777373717 | 12.78° C | 34% | 1021.5 hPa | 0 mm | - | - | - |
| 1777372517 | 12.22° C | 34% | 1021.5 hPa | 0 mm | - | - | - |
| 1777371917 | 12.22° C | 34% | 1021.5 hPa | 0 mm | - | - | - |
| 1777371317 | 12.78° C | 34% | 1021.5 hPa | 0 mm | - | - | - |
| 1777370117 | 12.78° C | 33% | 1021.4 hPa | 0 mm | - | - | - |
| 1777369517 | 13.33° C | 33% | 1021.4 hPa | 0 mm | - | - | - |
| 1777368917 | 13.89° C | 32% | 1021.7 hPa | 0 mm | - | - | - |
| 1777368317 | 13.89° C | 32% | 1021.8 hPa | 0 mm | - | - | - |
* Rain latest hour (hover to see other rain measurements)
** Current wind speed in m/s (hover to see current wind gust speed)